Waco, Missouri
Current Conditions -  °F | °C
As of 3:53 AM on Monday 22 Dec 2014 (Local Time) from KJLN Reporting Station
Overcast Overcast  
Wind Chill: 40°   Ceiling: 3000
Heat Index: 45°   Visibility: 10mi
Dew Point: 42°   Wind: 9mph
Humidity: 90%   Direction: 140°SE
Pressure: 29.65"   Gusts: NA
Location:  37.25°N, 94.6°W
Report Text: KJLN 220953Z AUTO 14008KT 10SM BKN030 OVC044 07/06 A2965 RMK AO2 SLP042 T00720056 $
Loading
Personal Weather Stations






























Interactive Weather Map New forecast layout! Learn more

10-Day Weather Forecast

Advertisements
Track Severe Weather on mobile